If you wish to contribute or participate in the discussions about articles you are invited to join SKYbrary as a registered user

 Actions

Sihanoukville International Airport

From SKYbrary Wiki

VDSV /
Revision as of 07:59, 20 August 2019 by Integration.Manager (talk | contribs)
(diff) ← Older revision | Latest revision (diff) | Newer revision → (diff)
Airport
ICAO: VDSV – IATA: KOS
Summary
Name Sihanoukville International Airport
Region Asia and Pacific
Territory Cambodia KH.gif
Location Kong King, Preah Sihanouk
Serving Sihanoukville
Elevation 12.192 m
40 ft
40 ft12.192 m
Coordinates 10° 34' 40.12" N, 103° 38' 12.26" E
Runways
Designator Length Width Surface ROPS
3/21 1296 m4,251.969 ft
34 m111.549 ft
ASP /


METAR
Observation VDSV 152230Z 28010KT 9000 SCT015 FEW017CB BKN040 28/25 Q1007 CB
Station Sihanoukville International Airport
Date/Time 15 September 2019 22:30:00
Wind direction 280°
Wind speed 10 kts
Lowest cloud amount scattered clouds
Temperature 28°C
Dew point 25°C
Humidity 83%
QNH 1007 hPa
Weather condition n/a

Sihanouk International Airport, located 18 km east of Preah Sihanouk Province, is Cambodia's third international airport. The airport is also known as Kang Keng Airport. The IATA code KOS dates from Sihanoukville's former name Kompong Som.

Climatology

Tropical Savanna climate (Köppen climate classification Aw)

Maps

Terrain

Loading map...

Airport Layout

Loading map...


Accidents & Serious Incidents at or in vicinity of VDSV

None on SKYbrary